Archival Weather

Chicago O'Hare International

Chicago, Illinois (KORD)

Report from: Sunday, March 6, 2022 9:08 PM CST
Current time: Saturday, February 4, 2023 10:51 PM CST

Current weather
Weather history
Weather forecast

Temperature2.8°C (37.0°F)
Wind chill-0.6°C (31.0°F)
Dew point-2.8°C (27.0°F)
Winds 7 kts (3.6 m/s, 8.1 mph) North (10°)
Visibility10 mi. (16.1 km)
Clouds Ceiling: Broken clouds 2,700 ft. (823 m)
Overcast 16,000 ft. (4,877 m)
Altimeter29.97 in.Hg (1015 mB)
Relative humidity67 %
Density altitude-1,460 ft. (-445 m)
Remarks System requires maintenance
Automated weather observing station with precipitation discriminator
Flight conditions Marginal Visual Meteorological Conditions
Raw dataKORD 070308Z 01007KT 10SM BKN027 OVC160 03/M03 A2997 RMK AO2 T00281028 $
An unhandled exception has occurred. See browser dev tools for details. Reload 🗙